Time;durP1;ratioP1;P1;durP2;ratioP2;P2;SDS_P1;SDS_P2;PMS_P1;PMS_P2;Temp;Humidity;BMP_temperature;BMP_pressure;BME280_temperature;BME280_humidity;BME280_pressure;Samples;Min_cycle;Max_cycle;Signal;HPM_P1;HPM_P2
2021/08/20 00:01:39;;;;;;;1.37;1.27;;;;;;;20.70;74.09;96375.41;5055217;28;20214;-58
2021/08/20 00:04:06;;;;;;;2.17;1.60;;;;;;;20.66;74.87;96369.84;5054773;28;20174;-61
2021/08/20 00:06:35;;;;;;;1.53;1.43;;;;;;;20.65;75.70;96367.47;5055297;28;20160;-58
2021/08/20 00:09:00;;;;;;;1.63;1.53;;;;;;;20.71;75.69;96360.97;5055067;28;20438;-58
2021/08/20 00:11:26;;;;;;;1.90;1.80;;;;;;;20.78;75.61;96366.75;5075013;28;20515;-61
2021/08/20 00:13:51;;;;;;;1.67;1.57;;;;;;;20.81;75.58;96368.84;5074626;28;20285;-58
2021/08/20 00:16:16;;;;;;;1.40;1.30;;;;;;;20.78;76.09;96362.19;5075032;28;20232;-61
2021/08/20 00:18:42;;;;;;;1.60;1.50;;;;;;;20.80;76.21;96359.25;5074948;28;20166;-58
2021/08/20 00:21:11;;;;;;;1.60;1.50;;;;;;;20.84;76.38;96360.22;5074360;28;20630;-61
2021/08/20 00:23:36;;;;;;;2.03;1.87;;;;;;;20.83;75.93;96362.13;5073775;28;20208;-59
2021/08/20 00:26:03;;;;;;;1.80;1.70;;;;;;;20.83;75.46;96350.66;5071327;28;20430;-60
2021/08/20 00:28:29;;;;;;;1.90;1.70;;;;;;;20.86;76.01;96353.53;5074710;28;20629;-61
2021/08/20 00:30:55;;;;;;;1.97;1.80;;;;;;;20.91;75.58;96352.63;5074890;28;20408;-58
2021/08/20 00:33:20;;;;;;;1.83;1.73;;;;;;;20.88;75.38;96358.56;5074225;28;20208;-58
2021/08/20 00:35:47;;;;;;;3.33;1.80;;;;;;;20.88;75.18;96354.03;5059514;28;20287;-61
2021/08/20 00:38:12;;;;;;;2.20;2.10;;;;;;;20.91;75.13;96345.44;5054672;28;20904;-61
2021/08/20 00:40:42;;;;;;;2.00;1.80;;;;;;;20.92;74.99;96348.91;5054765;28;20200;-60
2021/08/20 00:43:07;;;;;;;2.17;1.97;;;;;;;20.95;74.68;96342.97;5054293;28;20167;-58
2021/08/20 00:45:34;;;;;;;2.07;1.87;;;;;;;20.95;74.83;96341.09;5054369;28;20794;-58
2021/08/20 00:48:00;;;;;;;2.43;1.90;;;;;;;20.91;75.25;96340.09;5054488;28;20163;-61
2021/08/20 00:50:25;;;;;;;2.10;1.80;;;;;;;20.90;75.78;96343.06;5067531;28;20982;-58
2021/08/20 00:52:51;;;;;;;1.80;1.70;;;;;;;20.91;75.87;96339.28;5073899;28;20281;-61
2021/08/20 00:55:19;;;;;;;2.50;2.20;;;;;;;20.94;75.77;96344.06;5074308;28;20198;-58
2021/08/20 00:57:48;;;;;;;2.20;1.90;;;;;;;20.92;76.12;96339.00;5074149;28;20209;-61
2021/08/20 01:00:16;;;;;;;1.90;1.77;;;;;;;20.94;75.99;96338.72;5074160;28;20416;-58
2021/08/20 01:02:41;;;;;;;3.73;2.23;;;;;;;20.88;75.59;96353.22;5073827;28;20413;-60
2021/08/20 01:05:09;;;;;;;2.10;2.00;;;;;;;20.69;76.54;96357.81;5069135;28;20938;-61
2021/08/20 01:07:37;;;;;;;2.83;1.57;;;;;;;20.56;77.92;96351.31;5073945;28;20178;-60
2021/08/20 01:10:05;;;;;;;2.83;1.80;;;;;;;20.56;78.98;96351.31;5073934;28;20908;-58
2021/08/20 01:12:31;;;;;;;1.60;1.50;;;;;;;20.63;78.70;96346.41;5073853;28;20452;-58
2021/08/20 01:14:56;;;;;;;4.43;1.80;;;;;;;20.48;79.05;96343.94;5058918;28;20441;-58
2021/08/20 01:17:21;;;;;;;3.10;1.90;;;;;;;20.38;79.90;96336.84;5054207;28;20207;-61
2021/08/20 01:19:47;;;;;;;2.10;1.90;;;;;;;20.45;79.82;96341.84;5065435;28;20266;-60
2021/08/20 01:22:13;;;;;;;2.93;1.90;;;;;;;20.49;79.67;96348.19;5057462;28;20316;-58
2021/08/20 01:24:41;;;;;;;1.97;1.77;;;;;;;20.46;79.10;96348.75;5053199;28;20237;-58
2021/08/20 01:27:07;;;;;;;1.60;1.50;;;;;;;20.33;79.29;96350.28;5053671;28;20832;-58
2021/08/20 01:29:32;;;;;;;1.83;1.73;;;;;;;20.30;79.56;96337.50;5053565;28;20410;-58
2021/08/20 01:31:57;;;;;;;1.90;1.80;;;;;;;20.42;79.51;96337.06;5051879;28;20536;-58
2021/08/20 01:34:23;;;;;;;1.80;1.70;;;;;;;20.45;78.98;96345.28;5052662;28;20200;-58
2021/08/20 01:36:48;;;;;;;1.63;1.53;;;;;;;20.33;79.46;96352.94;5063991;28;20263;-58
2021/08/20 01:39:14;;;;;;;2.27;2.03;;;;;;;20.22;79.75;96343.47;5073751;28;20175;-61
2021/08/20 01:41:39;;;;;;;2.30;2.10;;;;;;;20.29;79.73;96337.81;5073705;28;20268;-60
2021/08/20 01:44:05;;;;;;;1.70;1.60;;;;;;;20.32;79.98;96339.88;5073029;28;20611;-60
2021/08/20 01:46:31;;;;;;;1.60;1.50;;;;;;;20.43;79.84;96336.81;5073629;28;20178;-60
2021/08/20 01:48:59;;;;;;;2.27;1.60;;;;;;;20.44;79.59;96342.91;5073498;28;20182;-58
2021/08/20 01:51:26;;;;;;;4.93;1.93;;;;;;;20.49;79.07;96337.50;5063590;28;20426;-60
2021/08/20 01:53:53;;;;;;;4.50;2.17;;;;;;;20.42;79.18;96337.88;5053156;28;20531;-58
2021/08/20 01:56:27;;;;;;;1.80;1.70;;;;;;;20.43;79.51;96336.00;5053254;28;20410;-60
2021/08/20 01:58:54;;;;;;;2.00;1.80;;;;;;;20.47;79.45;96340.47;5053224;28;20398;-58
2021/08/20 02:01:20;;;;;;;2.30;2.10;;;;;;;20.41;79.33;96340.84;5052061;28;20853;-61
2021/08/20 02:03:45;;;;;;;2.20;2.00;;;;;;;20.33;79.84;96350.28;5052854;28;20573;-59
2021/08/20 02:06:11;;;;;;;1.73;1.63;;;;;;;20.36;80.18;96344.34;5062948;28;20207;-58
2021/08/20 02:08:37;;;;;;;1.70;1.60;;;;;;;20.35;80.09;96341.97;5073383;28;20244;-61
2021/08/20 02:11:03;;;;;;;3.20;1.90;;;;;;;20.38;79.97;96339.53;5073358;28;20880;-58
2021/08/20 02:13:29;;;;;;;1.70;1.60;;;;;;;20.41;79.93;96341.63;5072826;28;20198;-60
2021/08/20 02:15:54;;;;;;;2.13;1.87;;;;;;;20.37;80.43;96343.28;5073008;28;20237;-61
2021/08/20 02:18:20;;;;;;;2.23;2.03;;;;;;;20.35;80.54;96333.97;5066808;28;20414;-61
2021/08/20 02:20:45;;;;;;;1.80;1.70;;;;;;;20.39;80.72;96340.31;5061956;28;20210;-58
2021/08/20 02:23:11;;;;;;;2.60;1.70;;;;;;;20.41;80.38;96344.31;5072696;28;20224;-60
2021/08/20 02:25:37;;;;;;;2.43;1.90;;;;;;;20.44;79.85;96343.72;5072944;28;20595;-61
2021/08/20 02:28:03;;;;;;;3.13;1.93;;;;;;;20.37;80.40;96340.63;5072887;28;20500;-61
2021/08/20 02:30:29;;;;;;;2.03;1.83;;;;;;;20.34;81.05;96341.19;5071872;28;20566;-58
2021/08/20 02:32:55;;;;;;;2.17;1.97;;;;;;;20.35;81.23;96342.78;5072525;28;20464;-61
2021/08/20 02:35:21;;;;;;;2.70;2.50;;;;;;;20.40;80.77;96340.03;5065224;28;20444;-58
2021/08/20 02:37:46;;;;;;;2.23;2.03;;;;;;;20.38;80.86;96342.19;5052928;28;20176;-60
2021/08/20 02:40:12;;;;;;;2.77;1.77;;;;;;;20.37;80.86;96345.97;5052888;28;20414;-61
2021/08/20 02:42:37;;;;;;;5.33;1.70;;;;;;;20.34;81.03;96346.53;5052440;28;20167;-59
2021/08/20 02:45:03;;;;;;;2.40;2.20;;;;;;;20.36;81.13;96339.00;5054204;28;20195;-61
2021/08/20 02:47:29;;;;;;;2.43;2.00;;;;;;;20.33;81.12;96344.94;5056806;28;20229;-58
2021/08/20 02:49:54;;;;;;;2.10;1.97;;;;;;;20.42;80.41;96339.75;5062623;28;20183;-60
2021/08/20 02:52:19;;;;;;;2.20;1.90;;;;;;;20.37;80.60;96337.94;5076514;28;20633;-58
2021/08/20 02:54:45;;;;;;;1.90;1.47;;;;;;;20.36;80.68;96336.34;5076070;28;20226;-60
2021/08/20 02:57:10;;;;;;;2.23;1.43;;;;;;;20.32;81.25;96347.91;5076479;28;20645;-61
2021/08/20 02:59:35;;;;;;;3.03;2.23;;;;;;;20.33;81.32;96341.47;5076387;28;20171;-61
2021/08/20 03:02:01;;;;;;;2.80;1.97;;;;;;;20.39;80.90;96349.13;5059843;28;20539;-61
2021/08/20 03:04:26;;;;;;;3.03;2.07;;;;;;;20.41;80.55;96352.31;5055924;28;20190;-58
2021/08/20 03:06:52;;;;;;;2.57;1.70;;;;;;;20.34;80.87;96343.88;5056474;28;20171;-61
2021/08/20 03:09:19;;;;;;;2.40;1.90;;;;;;;20.33;80.68;96339.59;5056478;28;20179;-58
2021/08/20 03:11:45;;;;;;;2.20;2.00;;;;;;;20.31;81.12;96344.44;5056327;28;20410;-58
2021/08/20 03:14:12;;;;;;;1.80;1.70;;;;;;;20.32;81.17;96340.69;5055618;28;20540;-58
2021/08/20 03:16:37;;;;;;;1.60;1.50;;;;;;;20.36;81.24;96341.69;5058381;28;20509;-59
2021/08/20 03:19:03;;;;;;;2.80;1.93;;;;;;;20.37;81.35;96337.94;5068257;28;20876;-61
2021/08/20 03:21:29;;;;;;;2.43;2.20;;;;;;;20.40;81.12;96340.03;5076443;28;20163;-61
2021/08/20 03:23:55;;;;;;;2.90;2.23;;;;;;;20.45;80.64;96341.84;5075471;28;20175;-60
2021/08/20 03:26:20;;;;;;;2.37;2.10;;;;;;;20.43;80.64;96346.69;5076109;28;20423;-58
2021/08/20 03:28:46;;;;;;;2.80;1.83;;;;;;;20.43;80.48;96336.00;5074824;28;20220;-58
2021/08/20 03:31:11;;;;;;;2.77;2.27;;;;;;;20.47;80.03;96345.81;5075028;28;20647;-60
2021/08/20 03:33:36;;;;;;;1.73;1.63;;;;;;;20.46;80.00;96348.75;5074074;28;20598;-58
2021/08/20 03:36:02;;;;;;;1.90;1.63;;;;;;;20.46;80.15;96346.09;5075641;28;20186;-58
2021/08/20 03:38:28;;;;;;;1.80;1.70;;;;;;;20.38;81.01;96346.75;5075748;28;20232;-58
2021/08/20 03:40:53;;;;;;;2.10;2.00;;;;;;;20.35;80.93;96342.78;5075657;28;20467;-58
2021/08/20 03:43:18;;;;;;;2.17;1.70;;;;;;;20.35;81.14;96339.31;5075341;28;20630;-60
2021/08/20 03:45:44;;;;;;;2.90;1.80;;;;;;;20.36;80.98;96347.03;5063542;28;20253;-58
2021/08/20 03:48:09;;;;;;;3.17;1.93;;;;;;;20.41;81.04;96346.19;5055603;28;20178;-58
2021/08/20 03:50:35;;;;;;;2.37;1.77;;;;;;;20.38;81.01;96342.19;5055395;28;20508;-61
2021/08/20 03:53:00;;;;;;;2.20;1.90;;;;;;;20.44;80.85;96341.06;5055023;28;20187;-60
2021/08/20 03:55:25;;;;;;;2.03;1.93;;;;;;;20.49;80.37;96356.19;5054492;28;20187;-61
2021/08/20 03:57:54;;;;;;;2.60;1.70;;;;;;;20.43;80.49;96352.03;5055492;28;20653;-61
2021/08/20 04:00:19;;;;;;;2.30;2.10;;;;;;;20.42;80.85;96353.09;5065305;28;20233;-58
2021/08/20 04:02:45;;;;;;;1.77;1.67;;;;;;;20.41;80.71;96346.97;5075053;28;20901;-61
2021/08/20 04:05:11;;;;;;;2.37;2.17;;;;;;;20.43;80.90;96346.69;5075324;28;20190;-58
2021/08/20 04:07:36;;;;;;;2.23;2.00;;;;;;;20.44;80.71;96351.72;5074167;28;20254;-60
2021/08/20 04:10:02;;;;;;;2.53;2.27;;;;;;;20.43;81.02;96346.69;5055237;28;20201;-58
2021/08/20 04:12:28;;;;;;;2.50;1.90;;;;;;;20.41;81.29;96346.19;5055275;28;20688;-61
2021/08/20 04:14:53;;;;;;;1.57;1.47;;;;;;;20.36;81.45;96351.59;5054512;28;20426;-61
2021/08/20 04:17:18;;;;;;;2.20;2.10;;;;;;;20.37;81.59;96351.28;5054967;28;20634;-58
2021/08/20 04:19:44;;;;;;;1.83;1.73;;;;;;;20.43;81.31;96354.69;5071508;28;20659;-58
2021/08/20 04:22:09;;;;;;;1.80;1.70;;;;;;;20.43;81.31;96347.47;5074910;28;20163;-58
2021/08/20 04:24:35;;;;;;;2.13;1.93;;;;;;;20.42;81.36;96359.22;5073666;28;20207;-60
2021/08/20 04:27:00;;;;;;;2.20;2.00;;;;;;;20.44;81.31;96354.41;5074907;28;20174;-58
2021/08/20 04:29:26;;;;;;;1.77;1.67;;;;;;;20.39;81.73;96362.47;5074928;28;20244;-59
2021/08/20 04:31:52;;;;;;;1.80;1.70;;;;;;;20.37;82.16;96359.31;5074801;28;20166;-61
2021/08/20 04:34:17;;;;;;;2.10;1.90;;;;;;;20.36;82.23;96363.03;5074203;28;20198;-61
2021/08/20 04:36:43;;;;;;;2.30;1.80;;;;;;;20.38;82.17;96362.78;5074599;28;20418;-58
2021/08/20 04:39:08;;;;;;;2.20;2.00;;;;;;;20.39;82.46;96359.81;5057144;28;20171;-58
2021/08/20 04:41:33;;;;;;;1.77;1.67;;;;;;;20.42;81.79;96369.09;5054634;28;20191;-58
2021/08/20 04:43:59;;;;;;;2.50;2.20;;;;;;;20.44;81.56;96362.41;5054041;28;20630;-58
2021/08/20 04:46:24;;;;;;;2.70;2.50;;;;;;;20.42;81.49;96361.91;5061789;28;20167;-58
2021/08/20 04:48:50;;;;;;;3.13;1.90;;;;;;;20.48;81.39;96370.63;5074554;28;20236;-58
2021/08/20 04:51:16;;;;;;;1.87;1.77;;;;;;;20.46;81.52;96372.78;5074274;28;20183;-58
2021/08/20 04:53:41;;;;;;;1.87;1.77;;;;;;;20.43;81.82;96368.84;5073770;28;20198;-58
2021/08/20 04:56:07;;;;;;;2.10;1.93;;;;;;;20.46;81.50;96372.78;5074443;28;20182;-58
2021/08/20 04:58:34;;;;;;;2.80;2.30;;;;;;;20.47;81.79;96375.16;5074160;28;20163;-58
2021/08/20 05:01:00;;;;;;;2.53;2.07;;;;;;;20.52;81.29;96374.31;5067558;28;20620;-58
2021/08/20 05:03:25;;;;;;;2.57;2.37;;;;;;;20.52;81.25;96374.31;5062598;28;20409;-58
2021/08/20 05:05:51;;;;;;;2.70;2.03;;;;;;;20.46;81.63;96380.81;5073975;28;20722;-61
2021/08/20 05:08:16;;;;;;;1.87;1.73;;;;;;;20.47;81.59;96375.16;5073930;28;20656;-61
2021/08/20 05:10:42;;;;;;;2.50;1.93;;;;;;;20.47;82.04;96388.53;5074046;28;20260;-61
2021/08/20 05:13:07;;;;;;;2.13;1.93;;;;;;;20.48;82.17;96383.97;5073601;28;20277;-61
2021/08/20 05:15:33;;;;;;;2.00;1.90;;;;;;;20.54;82.31;96390.06;5073732;28;20190;-58
2021/08/20 05:17:58;;;;;;;1.97;1.87;;;;;;;20.52;81.86;96394.88;5069469;28;20158;-58
2021/08/20 05:20:26;;;;;;;2.30;2.10;;;;;;;20.49;81.64;96397.03;5073850;28;20640;-58
2021/08/20 05:22:53;;;;;;;2.50;2.30;;;;;;;20.51;81.51;96391.41;5073566;28;20234;-58
2021/08/20 05:25:20;;;;;;;2.13;1.93;;;;;;;20.57;81.21;96395.59;5073665;28;20436;-58
2021/08/20 05:27:46;;;;;;;2.53;2.33;;;;;;;20.55;81.47;96404.97;5073726;28;20412;-58
2021/08/20 05:30:13;;;;;;;2.33;2.20;;;;;;;20.54;82.07;96404.22;5073588;28;20409;-61
2021/08/20 05:32:39;;;;;;;2.43;2.23;;;;;;;20.54;81.96;96406.88;5053339;28;20432;-58
2021/08/20 05:35:07;;;;;;;2.47;2.27;;;;;;;20.62;81.99;96403.56;5053585;28;20940;-61
2021/08/20 05:37:32;;;;;;;4.07;2.30;;;;;;;20.67;81.53;96400.84;5053700;28;20413;-61
2021/08/20 05:39:58;;;;;;;2.10;2.00;;;;;;;20.73;80.34;96409.53;5053626;28;20410;-61
2021/08/20 05:42:23;;;;;;;2.73;2.50;;;;;;;20.69;80.52;96406.66;5053594;28;20239;-58
2021/08/20 05:44:49;;;;;;;2.13;2.03;;;;;;;20.68;80.67;96409.63;5053053;28;20183;-61
2021/08/20 05:47:14;;;;;;;4.10;2.23;;;;;;;20.70;81.26;96418.94;5071377;28;20167;-61
2021/08/20 05:49:40;;;;;;;2.67;2.20;;;;;;;20.78;81.42;96417.50;5073511;28;20163;-58
2021/08/20 05:52:05;;;;;;;3.07;2.50;;;;;;;20.87;81.21;96424.56;5073485;28;20564;-61
2021/08/20 05:54:31;;;;;;;3.37;1.77;;;;;;;20.89;80.96;96422.41;5073082;28;20213;-58
2021/08/20 05:56:57;;;;;;;2.83;2.63;;;;;;;20.85;81.28;96431.28;5073413;28;20170;-59
2021/08/20 05:59:22;;;;;;;2.43;2.23;;;;;;;20.86;81.54;96430.19;5073533;28;20167;-61
2021/08/20 06:01:48;;;;;;;2.13;2.00;;;;;;;20.75;81.80;96434.09;5068718;28;20474;-61
2021/08/20 06:04:13;;;;;;;2.43;2.20;;;;;;;20.84;81.74;96437.72;5072882;28;20186;-58
2021/08/20 06:06:39;;;;;;;2.50;2.30;;;;;;;20.93;81.68;96428.75;5073228;28;20171;-61
2021/08/20 06:09:05;;;;;;;1.90;1.80;;;;;;;20.99;81.61;96433.00;5073168;28;20185;-58
2021/08/20 06:11:31;;;;;;;2.13;2.03;;;;;;;21.03;81.57;96436.69;5073132;28;20526;-61
2021/08/20 06:13:57;;;;;;;2.07;1.97;;;;;;;21.02;81.59;96436.94;5072876;28;20548;-58
2021/08/20 06:16:22;;;;;;;3.13;2.83;;;;;;;21.10;81.07;96436.31;5057489;28;20497;-58
2021/08/20 06:18:47;;;;;;;3.07;2.77;;;;;;;21.14;80.85;96440.00;5064090;28;20224;-61
2021/08/20 06:21:13;;;;;;;4.43;3.40;;;;;;;21.10;80.15;96437.09;5077228;28;20220;-58
2021/08/20 06:23:38;;;;;;;4.53;3.63;;;;;;;21.09;78.93;96437.38;5076621;28;20170;-61
2021/08/20 06:26:04;;;;;;;3.10;2.80;;;;;;;21.06;78.93;96436.09;5077243;28;20193;-59
2021/08/20 06:28:31;;;;;;;2.90;2.70;;;;;;;21.03;79.61;96439.34;5077185;28;20190;-57
2021/08/20 06:31:02;;;;;;;4.73;3.70;;;;;;;20.96;79.20;96440.75;5072490;28;20171;-57
2021/08/20 06:33:27;;;;;;;4.00;3.20;;;;;;;20.84;79.71;96443.03;5057497;28;20798;-61
2021/08/20 06:35:52;;;;;;;4.23;3.83;;;;;;;20.89;79.88;96449.13;5056857;28;20536;-61
2021/08/20 06:38:18;;;;;;;3.70;3.40;;;;;;;20.88;80.27;96450.22;5057096;28;20221;-58
2021/08/20 06:40:43;;;;;;;3.20;3.00;;;;;;;20.76;80.01;96452.53;5056950;28;20626;-60
2021/08/20 06:43:09;;;;;;;4.43;3.70;;;;;;;20.81;80.69;96449.78;5056331;28;20793;-61
2021/08/20 06:45:34;;;;;;;4.57;3.50;;;;;;;20.88;80.30;96454.75;5056676;28;20184;-58
2021/08/20 06:47:59;;;;;;;3.97;3.67;;;;;;;20.86;80.03;96451.56;5071917;28;20170;-58
2021/08/20 06:50:25;;;;;;;4.93;4.37;;;;;;;20.96;80.14;96446.88;5074939;28;20189;-58
2021/08/20 06:52:50;;;;;;;4.30;3.90;;;;;;;21.06;79.73;96451.31;5076297;28;20191;-58
2021/08/20 06:55:15;;;;;;;4.60;4.20;;;;;;;21.00;80.42;96450.59;5076446;28;20198;-58
2021/08/20 06:57:41;;;;;;;4.50;4.10;;;;;;;21.09;80.99;96446.19;5077075;28;20181;-60
2021/08/20 07:00:07;;;;;;;4.40;4.00;;;;;;;21.24;80.94;96450.53;5076576;28;20171;-61
2021/08/20 07:02:40;;;;;;;6.13;5.63;;;;;;;21.14;80.75;96453.34;5076319;28;20250;-57
2021/08/20 07:05:06;;;;;;;5.80;5.30;;;;;;;21.26;80.13;96445.69;5057670;28;20445;-58
2021/08/20 07:07:33;;;;;;;5.97;5.23;;;;;;;21.31;80.69;96450.94;5056329;28;20760;-61
2021/08/20 07:09:59;;;;;;;6.63;5.73;;;;;;;21.23;80.50;96443.59;5056398;28;20906;-61
2021/08/20 07:12:24;;;;;;;8.07;5.37;;;;;;;21.26;80.21;96449.16;5056215;28;20406;-58
2021/08/20 07:14:50;;;;;;;6.10;5.60;;;;;;;21.12;80.17;96444.81;5055727;28;20195;-59
2021/08/20 07:17:15;;;;;;;6.30;5.67;;;;;;;21.29;80.33;96451.22;5056442;28;20207;-58
2021/08/20 07:19:40;;;;;;;7.50;6.77;;;;;;;21.22;79.84;96445.47;5073028;28;20203;-60
2021/08/20 07:22:06;;;;;;;8.10;5.77;;;;;;;21.29;79.95;96450.44;5076105;28;20223;-60
2021/08/20 07:24:31;;;;;;;7.23;6.60;;;;;;;21.38;80.49;96454.84;5075378;28;20558;-63
2021/08/20 07:26:56;;;;;;;6.00;5.40;;;;;;;21.47;80.29;96449.59;5068249;28;20187;-63
2021/08/20 07:29:22;;;;;;;7.47;6.70;;;;;;;21.58;79.93;96445.69;5055919;28;20221;-63
2021/08/20 07:31:48;;;;;;;8.00;5.63;;;;;;;21.63;79.88;96442.94;5055857;28;20266;-63
2021/08/20 07:34:13;;;;;;;7.43;5.97;;;;;;;21.73;79.63;96447.31;5055369;28;20701;-63
2021/08/20 07:36:39;;;;;;;6.70;6.00;;;;;;;21.78;79.04;96445.34;5056014;28;20403;-63
2021/08/20 07:39:04;;;;;;;6.37;5.60;;;;;;;21.85;79.51;96445.78;5055596;28;20172;-63
2021/08/20 07:41:29;;;;;;;5.50;5.00;;;;;;;22.00;79.25;96442.84;5057110;28;20629;-63
2021/08/20 07:43:55;;;;;;;8.07;6.03;;;;;;;22.14;78.46;96443.66;5075196;28;20163;-63
2021/08/20 07:46:20;;;;;;;6.10;5.60;;;;;;;22.26;78.49;96454.69;5075325;28;20574;-61
2021/08/20 07:48:45;;;;;;;6.40;5.90;;;;;;;22.26;77.41;96456.56;5073138;28;20278;-58
2021/08/20 07:51:11;;;;;;;6.77;6.10;;;;;;;22.08;76.37;96452.88;5072024;28;20217;-62
2021/08/20 07:53:36;;;;;;;9.83;6.10;;;;;;;22.13;76.53;96450.09;5071506;28;20616;-61
2021/08/20 07:56:02;;;;;;;6.90;6.00;;;;;;;22.17;77.27;96444.94;5071865;28;20192;-60
2021/08/20 07:58:27;;;;;;;7.50;6.80;;;;;;;22.23;77.80;96446.44;5052461;28;20179;-61
2021/08/20 08:00:53;;;;;;;6.40;5.80;;;;;;;22.34;77.41;96456.66;5051282;28;20251;-61
2021/08/20 08:03:18;;;;;;;6.10;5.53;;;;;;;22.40;76.98;96454.66;5051425;28;20250;-61
2021/08/20 08:05:43;;;;;;;6.67;6.07;;;;;;;22.44;76.95;96461.03;5051720;28;20683;-61
2021/08/20 08:08:09;;;;;;;7.67;5.47;;;;;;;22.49;77.10;96460.91;5051623;28;20195;-59
2021/08/20 08:10:34;;;;;;;6.37;5.63;;;;;;;22.54;76.72;96460.03;5081890;28;20182;-59
2021/08/20 08:13:00;;;;;;;8.10;5.87;;;;;;;22.49;76.06;96466.28;5070035;28;20198;-59
2021/08/20 08:15:25;;;;;;;6.87;6.03;;;;;;;22.42;76.23;96468.56;5079246;28;20190;-59
2021/08/20 08:17:51;;;;;;;10.50;6.03;;;;;;;22.41;76.24;96469.66;5089338;28;20613;-59
2021/08/20 08:20:18;;;;;;;5.60;5.10;;;;;;;22.49;76.53;96469.75;5072153;28;20174;-59
2021/08/20 08:22:44;;;;;;;6.30;5.70;;;;;;;22.59;76.60;96478.72;5091398;28;20529;-59
2021/08/20 08:25:10;;;;;;;7.63;6.23;;;;;;;22.42;73.53;96471.22;5090821;28;20576;-59
2021/08/20 08:28:08;;;;;;;6.27;4.97;;;;;;;22.33;71.90;96471.13;5074264;28;20511;-59
2021/08/20 08:30:40;;;;;;;4.63;4.23;;;;;;;22.31;72.08;96477.88;5069789;28;20512;-59
2021/08/20 08:33:07;;;;;;;5.20;4.80;;;;;;;22.48;72.60;96473.50;5070806;28;20488;-59
2021/08/20 08:35:33;;;;;;;4.60;4.20;;;;;;;22.55;72.83;96481.19;5090166;28;20949;-58
2021/08/20 08:38:12;;;;;;;4.90;4.27;;;;;;;22.72;72.18;96473.31;5091152;28;20408;-59
2021/08/20 08:40:45;;;;;;;4.33;3.93;;;;;;;22.97;71.21;96477.38;5076841;28;20262;-58
2021/08/20 08:43:11;;;;;;;5.20;4.70;;;;;;;22.97;71.72;96480.06;5050263;28;20758;-57
2021/08/20 08:45:37;;;;;;;4.10;3.80;;;;;;;22.88;69.81;96481.84;5050869;28;20468;-58
2021/08/20 08:48:05;;;;;;;5.33;4.03;;;;;;;22.78;67.78;96476.69;5050975;28;20176;-59
2021/08/20 08:50:32;;;;;;;4.90;4.50;;;;;;;22.96;67.48;96476.56;5050470;28;20233;-59
2021/08/20 08:52:57;;;;;;;4.60;4.30;;;;;;;23.11;68.68;96470.09;5050502;28;20456;-59
2021/08/20 08:55:23;;;;;;;5.43;4.93;;;;;;;23.16;68.90;96469.97;5083917;28;20441;-59
2021/08/20 08:57:48;;;;;;;5.17;4.77;;;;;;;23.30;69.24;96468.06;5070659;28;20220;-59
2021/08/20 09:00:27;;;;;;;3.80;3.50;;;;;;;23.38;66.11;96472.72;5070695;28;20174;-60
2021/08/20 09:02:52;;;;;;;3.70;3.40;;;;;;;23.51;65.59;96466.50;5082489;28;20176;-59
2021/08/20 09:05:18;;;;;;;4.90;4.50;;;;;;;23.46;66.03;96467.41;5090717;28;20522;-59
2021/08/20 09:07:43;;;;;;;5.73;5.30;;;;;;;23.29;67.41;96458.44;5090784;28;20173;-59
2021/08/20 09:10:20;;;;;;;7.10;5.07;;;;;;;23.15;68.36;96477.22;5086592;28;20282;-59
2021/08/20 09:12:49;;;;;;;5.90;5.40;;;;;;;23.29;69.23;96474.53;5069569;28;20523;-59
2021/08/20 09:15:15;;;;;;;6.40;5.80;;;;;;;23.43;70.18;96472.59;5070298;28;20437;-58
2021/08/20 09:17:50;;;;;;;5.70;5.20;;;;;;;23.60;69.57;96478.09;5070304;28;20418;-59
2021/08/20 09:20:23;;;;;;;5.53;5.03;;;;;;;23.82;69.61;96471.91;5070311;28;20439;-58
2021/08/20 09:22:50;;;;;;;6.67;6.07;;;;;;;24.04;69.13;96466.56;5069789;28;20444;-58
2021/08/20 09:25:34;;;;;;;5.90;5.40;;;;;;;24.24;69.09;96464.09;5068681;28;20519;-59
2021/08/20 09:28:13;;;;;;;5.13;4.73;;;;;;;24.38;67.90;96467.50;5055555;28;20423;-59
2021/08/20 09:30:40;;;;;;;5.70;5.30;;;;;;;24.50;67.93;96466.88;5050278;28;20792;-59
2021/08/20 09:33:15;;;;;;;6.47;5.87;;;;;;;24.36;64.46;96468.91;5049650;28;20460;-59
2021/08/20 09:35:41;;;;;;;5.67;5.27;;;;;;;24.37;65.78;96465.91;5075074;28;20432;-59
2021/08/20 09:38:08;;;;;;;5.80;5.40;;;;;;;24.38;65.50;96469.38;5089674;28;20909;-59
2021/08/20 09:40:33;;;;;;;5.20;4.43;;;;;;;23.89;61.91;96473.06;5085147;28;20637;-59
2021/08/20 09:43:23;;;;;;;4.50;4.20;;;;;;;23.80;62.75;96474.91;5075245;28;20420;-60
2021/08/20 09:46:05;;;;;;;4.33;3.83;;;;;;;23.74;61.75;96469.97;5073462;28;20537;-58
2021/08/20 09:48:48;;;;;;;4.30;3.90;;;;;;;23.53;61.89;96472.38;5073516;28;20411;-60
2021/08/20 09:51:35;;;;;;;3.73;3.40;;;;;;;23.68;61.74;96471.19;5073468;28;20889;-60
2021/08/20 09:54:02;;;;;;;3.43;3.13;;;;;;;23.79;60.61;96464.50;5071979;28;20452;-59
2021/08/20 09:56:28;;;;;;;2.67;2.47;;;;;;;23.98;60.33;96455.13;5073514;28;20448;-60
2021/08/20 09:58:54;;;;;;;2.97;2.80;;;;;;;24.23;60.33;96462.53;5069927;28;20527;-58
2021/08/20 10:01:21;;;;;;;3.00;2.80;;;;;;;24.42;61.41;96456.94;5059481;28;20491;-59
2021/08/20 10:03:48;;;;;;;3.20;3.00;;;;;;;24.66;60.84;96461.91;5057773;28;20793;-60
2021/08/20 10:06:15;;;;;;;3.17;2.90;;;;;;;24.72;62.31;96466.03;5073139;28;20421;-60
2021/08/20 10:08:41;;;;;;;5.17;4.77;;;;;;;24.64;60.74;96466.78;5073356;28;20441;-60
2021/08/20 10:11:09;;;;;;;4.93;4.60;;;;;;;24.68;62.52;96459.66;5073075;28;20435;-60
2021/08/20 10:13:34;;;;;;;5.60;5.13;;;;;;;24.65;63.99;96471.06;5072751;28;20942;-60
2021/08/20 10:16:01;;;;;;;5.13;4.73;;;;;;;24.59;63.53;96466.91;5072584;28;20436;-60
2021/08/20 10:18:29;;;;;;;7.50;4.93;;;;;;;24.61;64.46;96465.50;5080711;28;20223;-61
2021/08/20 10:20:56;;;;;;;5.57;5.07;;;;;;;24.62;65.12;96469.78;5093590;28;20411;-61
2021/08/20 10:23:22;;;;;;;5.13;4.73;;;;;;;24.68;65.51;96465.84;5092996;28;20396;-60
2021/08/20 10:25:48;;;;;;;4.53;4.23;;;;;;;24.71;64.76;96461.78;5093077;28;20561;-60
2021/08/20 10:28:15;;;;;;;8.33;5.30;;;;;;;24.71;64.74;96467.94;5092663;28;20503;-60
2021/08/20 10:30:45;;;;;;;6.30;4.87;;;;;;;24.84;64.60;96458.94;5080191;28;20667;-60
2021/08/20 10:33:10;;;;;;;4.50;4.20;;;;;;;24.89;63.49;96466.88;5072711;28;20445;-59
2021/08/20 10:35:49;;;;;;;5.60;5.10;;;;;;;24.94;63.02;96464.03;5073093;28;20798;-58
2021/08/20 10:38:50;;;;;;;5.97;4.67;;;;;;;25.01;64.76;96463.56;5073153;28;20170;-58
2021/08/20 10:41:22;;;;;;;5.00;4.47;;;;;;;25.10;64.41;96464.38;5072725;28;20535;-64
2021/08/20 10:44:01;;;;;;;5.40;5.00;;;;;;;25.16;62.65;96458.53;5072504;28;20495;-61
2021/08/20 10:46:33;;;;;;;3.70;3.40;;;;;;;25.14;63.21;96470.69;5052972;28;20492;-59
2021/08/20 10:49:10;;;;;;;8.30;5.30;;;;;;;25.07;62.51;96463.13;5057962;28;20463;-60
2021/08/20 10:54:26;;;;;;;4.00;3.70;;;;;;;24.92;59.50;96462.75;5072287;28;20460;-58
2021/08/20 10:56:52;;;;;;;4.40;4.10;;;;;;;24.88;58.93;96461.78;5052988;28;20899;-59
2021/08/20 10:59:43;;;;;;;3.43;3.23;;;;;;;24.88;59.19;96464.47;5052654;28;20787;-60
2021/08/20 11:02:18;;;;;;;4.23;3.93;;;;;;;24.84;60.00;96466.25;5054459;28;20487;-61
2021/08/20 11:04:59;;;;;;;3.90;3.60;;;;;;;24.86;60.88;96466.69;5065458;28;21017;-58
2021/08/20 11:07:34;;;;;;;4.20;3.90;;;;;;;24.94;61.63;96463.25;5075403;28;20421;-58
2021/08/20 11:10:00;;;;;;;3.90;3.60;;;;;;;25.08;61.47;96451.22;5074385;28;20890;-58
2021/08/20 11:12:51;;;;;;;3.83;3.53;;;;;;;25.31;60.42;96457.28;5060372;28;20501;-57
2021/08/20 11:17:52;;;;;;;6.10;4.47;;;;;;;25.40;59.61;96452.72;5064781;28;20429;-57
2021/08/20 11:20:36;;;;;;;4.43;4.07;;;;;;;25.71;58.93;96457.91;5061975;28;20515;-58
2021/08/20 11:25:48;;;;;;;4.10;3.90;;;;;;;25.96;59.36;96463.22;5063657;28;21013;-60
2021/08/20 11:28:25;;;;;;;4.40;4.10;;;;;;;26.09;58.89;96464.97;5063916;28;20418;-59
2021/08/20 11:31:04;;;;;;;4.53;4.13;;;;;;;25.91;54.61;96460.69;5064055;28;20413;-59
2021/08/20 11:33:39;;;;;;;3.63;3.43;;;;;;;25.89;54.68;96460.22;5078797;28;20829;-59
2021/08/20 11:36:05;;;;;;;8.63;4.60;;;;;;;25.74;53.74;96459.94;5065745;28;20447;-61
2021/08/20 11:38:38;;;;;;;5.70;4.23;;;;;;;25.57;55.16;96451.88;5063572;28;20422;-60
2021/08/20 11:41:10;;;;;;;6.97;3.93;;;;;;;25.55;55.87;96451.41;5069069;28;20420;-60
2021/08/20 11:43:35;;;;;;;5.23;4.87;;;;;;;25.64;57.14;96455.69;5070310;28;20595;-61